Time;durP1;ratioP1;P1;durP2;ratioP2;P2;SDS_P1;SDS_P2;PMS_P1;PMS_P2;Temp;Humidity;BMP_temperature;BMP_pressure;BME280_temperature;BME280_humidity;BME280_pressure;Samples;Min_cycle;Max_cycle;Signal;HPM_P1;HPM_P2
2023/04/29 00:27:36;;;;;;;5.47;2.87;;;;;;;16.08;84.62;100254.06;4756524;29;20275;-74
2023/04/29 04:35:49;;;;;;;4.40;2.27;;;;;;;14.28;83.37;100373.41;4818333;29;20241;-76
2023/04/29 04:39:32;;;;;;;3.37;2.00;;;;;;;14.25;84.02;100371.06;4795448;29;20224;-73
2023/04/29 06:46:09;;;;;;;16.97;10.83;;;;;;;16.00;71.47;100521.63;4797126;29;20248;-65
2023/04/29 07:03:48;;;;;;;14.83;10.73;;;;;;;15.89;69.40;100549.63;4727822;30;20323;-69
2023/04/29 07:09:25;;;;;;;12.27;9.00;;;;;;;16.01;69.56;100552.69;4760296;30;20498;-67
2023/04/29 07:15:43;;;;;;;16.70;9.77;;;;;;;16.03;68.66;100556.84;4764512;30;20267;-69
2023/04/29 07:18:18;;;;;;;13.93;9.37;;;;;;;16.12;68.16;100557.59;4782405;29;20222;-67
2023/04/29 07:21:07;;;;;;;13.17;8.93;;;;;;;16.10;68.59;100567.66;4805933;29;20232;-70
2023/04/29 07:23:54;;;;;;;15.20;9.53;;;;;;;16.15;67.81;100576.81;4803378;29;20224;-69
2023/04/29 07:29:20;;;;;;;14.27;9.00;;;;;;;16.13;68.16;100578.84;4804908;29;20213;-68
2023/04/29 07:34:58;;;;;;;11.90;7.17;;;;;;;16.26;66.70;100588.94;4800571;29;20259;-69
2023/04/29 07:38:14;;;;;;;11.03;6.30;;;;;;;16.10;66.44;100583.69;4804700;29;21615;-68
2023/04/29 07:41:11;;;;;;;10.70;5.97;;;;;;;16.26;65.61;100590.78;4791764;29;20242;-68
2023/04/29 07:43:47;;;;;;;8.73;5.90;;;;;;;16.29;65.83;100595.72;4802812;29;20250;-68
2023/04/29 07:46:17;;;;;;;10.80;6.57;;;;;;;16.18;66.18;100603.19;4803716;29;20256;-68
2023/04/29 07:48:53;;;;;;;11.20;6.20;;;;;;;16.30;64.91;100598.22;4802841;29;20217;-69
2023/04/29 07:51:33;;;;;;;12.10;6.93;;;;;;;16.24;65.02;100601.66;4802612;29;20237;-68
2023/04/29 07:54:07;;;;;;;8.27;5.77;;;;;;;16.17;65.46;100609.56;4804866;29;20209;-69
2023/04/29 07:57:20;;;;;;;;;;;;;;;;;;;;;
2023/04/29 08:00:08;;;;;;;11.00;6.27;;;;;;;16.28;65.12;100612.81;4796956;29;20220;-69
2023/04/29 08:02:51;;;;;;;9.53;6.30;;;;;;;16.33;64.41;100621.13;4805058;29;20209;-69
2023/04/29 08:09:21;;;;;;;10.30;6.97;;;;;;;16.28;65.46;100615.47;4785029;29;20340;-69
2023/04/29 08:12:16;;;;;;;11.03;7.03;;;;;;;16.38;65.64;100624.09;4802272;29;20776;-68
2023/04/29 08:14:56;;;;;;;10.40;7.30;;;;;;;16.34;66.12;100636.19;4804485;29;20220;-70
2023/04/29 08:17:26;;;;;;;9.60;6.87;;;;;;;16.40;64.95;100633.59;4802999;29;20231;-69
2023/04/29 08:19:54;;;;;;;10.77;6.10;;;;;;;16.42;64.04;100639.59;4803188;29;21136;-68
2023/04/29 08:22:40;;;;;;;8.73;6.00;;;;;;;16.31;63.95;100640.03;4802495;29;20308;-67
2023/04/29 08:25:09;;;;;;;10.43;5.83;;;;;;;16.41;64.26;100645.13;4802854;29;20241;-68
2023/04/29 08:27:44;;;;;;;9.67;6.50;;;;;;;16.40;63.99;100646.97;4799546;29;20280;-67
2023/04/29 08:30:19;;;;;;;10.30;6.57;;;;;;;16.42;63.92;100652.16;4797559;29;20213;-68
2023/04/29 08:33:13;;;;;;;9.03;6.00;;;;;;;16.43;62.67;100654.66;4801939;29;20329;-68
2023/04/29 08:35:49;;;;;;;9.90;5.57;;;;;;;16.37;62.98;100650.00;4806973;29;20221;-68
2023/04/29 08:38:22;;;;;;;9.37;5.47;;;;;;;16.19;63.58;100658.34;4806344;29;20253;-65
2023/04/29 08:41:19;;;;;;;7.93;5.03;;;;;;;16.28;63.19;100652.94;4804873;29;20236;-68
2023/04/29 08:44:16;;;;;;;6.53;4.67;;;;;;;16.25;63.08;100653.31;4806565;29;20246;-71
2023/04/29 08:46:57;;;;;;;9.40;5.13;;;;;;;16.38;62.66;100661.56;4795590;29;20269;-68
2023/04/29 08:52:26;;;;;;;6.40;4.50;;;;;;;16.27;63.34;100662.00;4803588;29;20318;-70
2023/04/29 08:54:55;;;;;;;7.60;3.83;;;;;;;16.37;62.29;100660.72;4806124;29;20232;-70
2023/04/29 09:00:27;;;;;;;7.37;4.60;;;;;;;16.44;62.03;100666.19;4804615;29;20280;-68
2023/04/29 09:03:27;;;;;;;8.53;4.83;;;;;;;16.39;62.21;100657.88;4804230;29;20296;-70
2023/04/29 09:06:14;;;;;;;7.73;4.70;;;;;;;16.42;62.49;100666.38;4800436;29;20694;-69
2023/04/29 09:08:47;;;;;;;7.40;4.93;;;;;;;16.53;62.23;100670.47;4802730;29;20280;-71
2023/04/29 09:14:08;;;;;;;6.17;4.77;;;;;;;16.59;61.81;100672.41;4801701;29;20224;-65
2023/04/29 09:16:38;;;;;;;6.60;4.53;;;;;;;16.61;61.41;100672.22;4807611;29;20609;-70
2023/04/29 09:19:07;;;;;;;10.00;5.23;;;;;;;16.58;61.18;100677.94;4801453;29;20707;-70
2023/04/29 09:21:55;;;;;;;6.93;5.10;;;;;;;16.57;61.51;100685.13;4801422;29;20205;-68
2023/04/29 09:24:53;;;;;;;8.80;5.03;;;;;;;16.60;61.18;100684.78;4800030;29;20244;-66
2023/04/29 09:27:41;;;;;;;6.37;4.60;;;;;;;16.60;61.72;100690.13;4799032;29;20232;-69
2023/04/29 09:30:31;;;;;;;8.87;4.53;;;;;;;16.59;61.52;100695.66;4792375;29;20266;-70
2023/04/29 09:33:08;;;;;;;8.50;4.80;;;;;;;16.49;61.52;100698.59;4798837;29;20294;-70
2023/04/29 09:35:41;;;;;;;7.97;4.67;;;;;;;16.59;60.89;100698.34;4798369;29;20317;-68
2023/04/29 09:38:20;;;;;;;7.53;5.43;;;;;;;16.55;61.51;100695.19;4797182;29;20228;-68
2023/04/29 09:40:52;;;;;;;7.03;4.90;;;;;;;16.67;60.72;100692.94;4794502;29;20228;-70
2023/04/29 09:43:28;;;;;;;7.37;5.47;;;;;;;16.59;61.28;100693.00;4795356;29;20216;-70
2023/04/29 09:45:57;;;;;;;7.87;5.13;;;;;;;16.66;60.87;100689.44;4799394;29;20814;-70
2023/04/29 09:48:48;;;;;;;8.23;5.47;;;;;;;16.74;60.83;100694.69;4795611;29;20696;-65
2023/04/29 09:51:17;;;;;;;8.30;5.50;;;;;;;16.83;61.17;100703.47;4796652;29;20213;-64
2023/04/29 09:53:48;;;;;;;7.53;5.13;;;;;;;16.79;61.67;100708.41;4797101;29;20237;-65
2023/04/29 09:56:16;;;;;;;8.00;5.40;;;;;;;16.80;61.22;100704.66;4797398;29;20224;-65
2023/04/29 10:05:19;;;;;;;8.80;5.53;;;;;;;16.82;60.87;100710.69;4806078;29;20231;-70
2023/04/29 10:08:04;;;;;;;8.27;5.47;;;;;;;16.83;61.14;100706.16;4745289;30;20230;-70
2023/04/29 10:11:11;;;;;;;7.67;5.23;;;;;;;16.96;59.88;100703.69;4749489;30;20231;-69
2023/04/29 10:13:55;;;;;;;11.50;5.43;;;;;;;17.04;59.91;100705.44;4748367;30;20241;-69
2023/04/29 10:16:45;;;;;;;6.87;4.80;;;;;;;17.12;60.02;100711.56;4742295;30;20242;-68
2023/04/29 10:19:29;;;;;;;7.93;5.17;;;;;;;17.06;60.08;100714.16;4748865;30;20226;-69
2023/04/29 10:22:29;;;;;;;9.83;4.90;;;;;;;17.08;60.05;100712.09;4748164;30;20226;-70
2023/04/29 10:28:15;;;;;;;5.90;4.50;;;;;;;16.99;60.15;100713.19;4746954;30;20354;-70
2023/04/29 10:30:45;;;;;;;7.97;5.33;;;;;;;17.06;60.09;100708.78;4745897;30;20223;-69
2023/04/29 10:33:49;;;;;;;7.33;5.07;;;;;;;17.09;59.84;100713.75;4742913;30;20238;-68
2023/04/29 10:36:51;;;;;;;5.57;3.90;;;;;;;17.08;59.69;100712.91;4746081;30;20233;-68
2023/04/29 10:43:15;;;;;;;6.30;4.43;;;;;;;16.97;59.95;100717.94;4748251;30;20693;-69
2023/04/29 10:46:06;;;;;;;7.83;3.87;;;;;;;17.05;59.86;100720.50;4720983;30;20352;-69
2023/04/29 10:48:48;;;;;;;4.27;3.40;;;;;;;17.12;60.03;100721.44;4782408;29;20216;-69
2023/04/29 10:52:17;;;;;;;8.23;4.30;;;;;;;17.12;59.35;100718.75;4791111;29;20239;-70
2023/04/29 10:55:02;;;;;;;6.70;3.77;;;;;;;17.13;59.66;100721.25;4787294;29;20427;-69
2023/04/29 11:01:35;;;;;;;5.53;3.40;;;;;;;17.00;60.65;100725.56;4803080;29;20251;-68
2023/04/29 11:04:05;;;;;;;5.50;3.13;;;;;;;17.02;60.28;100720.88;4803670;29;20293;-69
2023/04/29 11:07:01;;;;;;;;;;;;;;;;;;;;;
2023/04/29 11:09:41;;;;;;;7.93;3.53;;;;;;;17.09;60.44;100721.78;4801893;29;20217;-69
2023/04/29 11:12:12;;;;;;;5.07;3.43;;;;;;;17.11;60.85;100714.41;4803306;29;20254;-71
2023/04/29 11:14:42;;;;;;;4.93;3.10;;;;;;;17.25;60.29;100724.28;4814021;29;20297;-69
2023/04/29 11:17:22;;;;;;;8.83;3.60;;;;;;;17.31;62.79;100723.56;4845794;24;20261;-68
2023/04/29 11:19:56;;;;;;;6.37;4.23;;;;;;;17.33;61.65;100715.34;4824267;29;20219;-71
2023/04/29 11:22:29;;;;;;;7.47;3.90;;;;;;;17.51;60.91;100727.31;4822033;29;21200;-67
2023/04/29 11:25:00;;;;;;;5.57;3.63;;;;;;;17.57;59.92;100721.22;4812851;29;20248;-69
2023/04/29 11:27:37;;;;;;;6.40;4.37;;;;;;;17.68;59.12;100725.28;4816516;29;20209;-68
2023/04/29 11:30:15;;;;;;;7.93;5.30;;;;;;;17.57;59.13;100729.28;4820541;29;20212;-70
2023/04/29 11:33:06;;;;;;;7.23;4.70;;;;;;;17.54;59.79;100721.59;4822313;29;20429;-69
2023/04/29 11:35:47;;;;;;;5.87;4.17;;;;;;;17.58;59.28;100730.94;4813770;29;20222;-69
2023/04/29 11:38:17;;;;;;;5.50;3.77;;;;;;;17.57;59.48;100723.91;4812819;29;20218;-71
2023/04/29 11:40:49;;;;;;;5.03;3.33;;;;;;;17.57;59.60;100723.06;4818041;29;20224;-69
2023/04/29 11:43:25;;;;;;;5.50;3.30;;;;;;;17.55;59.71;100728.63;4826271;29;20247;-66
2023/04/29 11:45:59;;;;;;;8.50;4.40;;;;;;;17.62;59.50;100728.72;4827608;29;20219;-69
2023/04/29 11:48:30;;;;;;;5.10;3.47;;;;;;;17.63;58.84;100728.53;4826864;29;20205;-68
2023/04/29 11:50:59;;;;;;;6.03;3.90;;;;;;;17.71;58.55;100729.44;4829389;29;20220;-67
2023/04/29 11:53:46;;;;;;;5.53;3.10;;;;;;;17.73;58.05;100730.09;4831606;29;20295;-68
2023/04/29 11:56:37;;;;;;;4.80;2.97;;;;;;;17.81;57.45;100730.00;4828727;29;20768;-67
2023/04/29 11:59:07;;;;;;;5.10;2.80;;;;;;;17.95;56.72;100732.63;4832491;29;20223;-69
2023/04/29 12:01:45;;;;;;;3.70;2.40;;;;;;;18.08;56.13;100729.25;4822833;29;20216;-71
2023/04/29 12:04:25;;;;;;;4.53;2.60;;;;;;;18.23;56.18;100731.88;4829830;29;20212;-68
2023/04/29 12:07:07;;;;;;;4.10;2.50;;;;;;;18.26;55.64;100729.66;4826556;29;20246;-68
2023/04/29 12:09:44;;;;;;;7.17;3.57;;;;;;;18.29;55.15;100731.97;4811714;29;20735;-65
2023/04/29 12:12:13;;;;;;;4.93;2.90;;;;;;;18.35;54.81;100725.81;4809865;29;20221;-65
2023/04/29 12:14:46;;;;;;;5.27;2.40;;;;;;;18.38;55.01;100728.09;4820035;29;20253;-70
2023/04/29 12:17:16;;;;;;;5.20;3.13;;;;;;;18.34;54.88;100726.00;4824592;29;20335;-65
2023/04/29 12:20:11;;;;;;;4.03;2.63;;;;;;;18.31;55.39;100735.25;4817696;29;20216;-68
2023/04/29 12:22:42;;;;;;;3.97;2.87;;;;;;;18.23;55.75;100735.41;4829355;29;21400;-69
2023/04/29 12:25:25;;;;;;;6.57;2.83;;;;;;;18.22;56.04;100740.94;4821560;29;20717;-69
2023/04/29 12:27:59;;;;;;;7.07;3.13;;;;;;;18.23;55.18;100738.06;4820873;29;20334;-68
2023/04/29 12:30:54;;;;;;;6.67;3.30;;;;;;;18.21;54.67;100737.44;4825115;29;20212;-66
2023/04/29 12:33:32;;;;;;;5.07;3.00;;;;;;;18.15;54.85;100737.38;4824685;29;20596;-70
2023/04/29 12:36:16;;;;;;;4.80;3.10;;;;;;;18.07;54.20;100735.66;4820738;29;20230;-69
2023/04/29 12:38:54;;;;;;;4.50;3.07;;;;;;;18.12;55.02;100733.22;4818879;29;20227;-70
2023/04/29 12:41:46;;;;;;;4.73;2.60;;;;;;;18.15;54.88;100740.06;4832178;29;20246;-69
2023/04/29 12:44:16;;;;;;;3.93;2.43;;;;;;;18.26;54.35;100735.03;4815682;29;20248;-71
2023/04/29 12:46:54;;;;;;;4.00;2.90;;;;;;;18.29;53.25;100725.75;4807502;29;20289;-72
2023/04/29 12:49:29;;;;;;;3.77;2.67;;;;;;;18.30;53.72;100736.28;4806881;29;20307;-72
2023/04/29 12:51:57;;;;;;;4.00;2.53;;;;;;;18.29;53.46;100729.28;4809594;29;20220;-73
2023/04/29 12:54:29;;;;;;;5.00;2.47;;;;;;;18.34;52.75;100736.75;4807988;29;20240;-72
2023/04/29 12:57:21;;;;;;;6.67;2.60;;;;;;;18.32;53.13;100734.25;4809350;29;20212;-72
2023/04/29 12:59:49;;;;;;;3.57;2.33;;;;;;;18.30;54.01;100736.28;4803402;29;20320;-68
2023/04/29 13:02:19;;;;;;;5.97;2.77;;;;;;;18.35;54.09;100739.25;4808593;29;20212;-74
2023/04/29 13:04:55;;;;;;;4.50;3.03;;;;;;;18.34;54.38;100742.94;4804231;29;20371;-70
2023/04/29 13:07:25;;;;;;;5.70;3.70;;;;;;;18.31;54.19;100732.59;4812223;29;20216;-66
2023/04/29 13:09:57;;;;;;;6.57;3.17;;;;;;;18.25;54.61;100737.88;4817970;29;20303;-68
2023/04/29 13:12:30;;;;;;;6.03;3.63;;;;;;;18.25;55.74;100736.03;4811847;29;20272;-66
2023/04/29 13:14:58;;;;;;;6.07;3.87;;;;;;;18.19;58.16;100735.97;4814276;29;20268;-67
2023/04/29 13:17:29;;;;;;;6.30;3.93;;;;;;;18.18;56.60;100740.53;4808771;29;20799;-68
2023/04/29 13:20:11;;;;;;;5.37;3.30;;;;;;;18.19;55.66;100744.88;4810491;29;20219;-67
2023/04/29 13:23:18;;;;;;;6.27;3.77;;;;;;;18.34;55.75;100739.44;4816664;29;20217;-67
2023/04/29 13:25:47;;;;;;;8.07;4.90;;;;;;;18.41;55.26;100745.69;4816321;29;20322;-68
2023/04/29 13:28:25;;;;;;;8.17;5.20;;;;;;;18.42;55.17;100742.81;4811069;29;20220;-70
2023/04/29 13:30:56;;;;;;;6.27;4.20;;;;;;;18.30;55.04;100743.50;4817947;29;20222;-69
2023/04/29 13:33:47;;;;;;;6.27;3.87;;;;;;;18.26;55.09;100740.38;4817007;29;20209;-69
2023/04/29 13:36:34;;;;;;;5.87;4.10;;;;;;;18.15;55.06;100738.22;4820563;29;20224;-69
2023/04/29 13:39:16;;;;;;;5.60;3.90;;;;;;;18.17;55.20;100738.84;4821063;29;20217;-68
2023/04/29 13:41:51;;;;;;;7.37;4.07;;;;;;;18.34;54.86;100737.56;4819592;29;20634;-69
2023/04/29 13:44:29;;;;;;;4.63;2.97;;;;;;;18.53;54.60;100740.63;4824013;29;20220;-73
2023/04/29 13:47:28;;;;;;;5.37;3.40;;;;;;;18.69;54.21;100735.84;4821899;29;20209;-68
2023/04/29 13:53:35;;;;;;;4.03;2.93;;;;;;;18.91;51.93;100731.25;4822976;29;20223;-69
2023/04/29 13:59:47;;;;;;;8.90;3.53;;;;;;;19.02;51.68;100741.47;4761560;30;20245;-68
2023/04/29 14:02:20;;;;;;;5.40;3.60;;;;;;;19.04;52.42;100739.41;4762207;30;20548;-67
2023/04/29 14:04:54;;;;;;;7.90;4.23;;;;;;;19.03;52.67;100737.75;4818726;29;20220;-68
2023/04/29 14:07:33;;;;;;;7.03;3.77;;;;;;;18.94;52.75;100738.09;4828593;29;20255;-66
2023/04/29 14:12:57;;;;;;;4.63;3.33;;;;;;;18.90;52.66;100731.47;4809722;29;20935;-69
2023/04/29 14:15:41;;;;;;;5.87;3.70;;;;;;;18.86;52.75;100733.69;4818272;29;20248;-69
2023/04/29 14:18:19;;;;;;;6.17;3.97;;;;;;;18.78;52.75;100736.53;4807012;29;20217;-69
2023/04/29 14:20:58;;;;;;;5.17;3.20;;;;;;;18.67;53.15;100747.81;4806113;29;20217;-69
2023/04/29 14:24:05;;;;;;;5.23;3.27;;;;;;;18.47;53.35;100749.47;4808942;29;20220;-68
2023/04/29 14:26:42;;;;;;;4.87;3.37;;;;;;;18.45;54.29;100748.81;4806754;29;20217;-69
2023/04/29 14:29:42;;;;;;;5.67;3.50;;;;;;;18.35;54.41;100754.53;4796937;29;20255;-65
2023/04/29 14:35:06;;;;;;;6.20;3.47;;;;;;;18.30;54.42;100756.94;4796242;29;20675;-65
2023/04/29 14:37:38;;;;;;;5.73;3.57;;;;;;;18.22;54.08;100755.19;4798460;29;20312;-65
2023/04/29 14:42:58;;;;;;;6.80;3.63;;;;;;;18.18;55.13;100758.47;4790147;29;20220;-65
2023/04/29 14:45:48;;;;;;;5.00;3.63;;;;;;;18.11;55.19;100757.56;4794425;29;20216;-64
2023/04/29 14:48:20;;;;;;;6.20;3.80;;;;;;;18.05;55.35;100759.16;4794811;29;20263;-65
2023/04/29 14:50:49;;;;;;;6.17;3.83;;;;;;;18.01;55.57;100768.63;4796632;29;20222;-65
2023/04/29 14:53:20;;;;;;;5.00;3.60;;;;;;;17.95;55.91;100766.66;4798217;29;20747;-65
2023/04/29 14:55:50;;;;;;;5.83;3.63;;;;;;;17.91;55.95;100771.59;4798428;29;20249;-65
2023/04/29 14:58:20;;;;;;;9.00;3.93;;;;;;;17.89;56.18;100775.47;4797156;29;20240;-64
2023/04/29 15:01:02;;;;;;;6.17;3.57;;;;;;;17.84;56.44;100775.22;4796368;29;20216;-64
2023/04/29 15:03:32;;;;;;;6.60;3.60;;;;;;;17.89;56.14;100778.16;4799406;29;20227;-65
2023/04/29 15:09:43;;;;;;;5.93;4.13;;;;;;;17.87;56.10;100783.72;4789196;29;20246;-64
2023/04/29 15:15:49;;;;;;;4.93;3.10;;;;;;;17.96;56.39;100779.91;4772703;29;20250;-65
2023/04/29 15:18:47;;;;;;;10.50;3.77;;;;;;;18.03;56.27;100782.66;4775686;29;20307;-64
2023/04/29 15:21:17;;;;;;;9.10;3.80;;;;;;;18.05;56.14;100789.50;4810178;29;20277;-65
2023/04/29 15:23:46;;;;;;;4.97;3.87;;;;;;;18.10;56.12;100786.25;4809954;29;20584;-65
2023/04/29 15:26:18;;;;;;;4.87;3.43;;;;;;;18.22;55.74;100784.72;4812942;29;20279;-66
2023/04/29 15:28:53;;;;;;;5.40;4.00;;;;;;;18.26;55.75;100780.66;4810485;29;20645;-65
2023/04/29 15:31:51;;;;;;;6.23;3.83;;;;;;;18.27;55.84;100789.53;4801958;29;20234;-65
2023/04/29 15:34:21;;;;;;;5.17;3.77;;;;;;;18.22;55.70;100786.56;4779462;29;20213;-65
2023/04/29 15:36:50;;;;;;;4.70;3.80;;;;;;;18.24;55.15;100785.38;4809374;29;20243;-65
2023/04/29 15:42:33;;;;;;;6.90;4.40;;;;;;;18.22;55.38;100792.78;4810557;29;20315;-65
2023/04/29 15:45:15;;;;;;;4.73;3.60;;;;;;;18.25;55.49;100795.09;4809785;29;20587;-64
2023/04/29 15:48:01;;;;;;;7.90;4.10;;;;;;;18.15;55.65;100797.25;4809407;29;20679;-65
2023/04/29 15:50:47;;;;;;;5.37;3.67;;;;;;;18.20;55.94;100799.38;4811578;29;20239;-65
2023/04/29 15:53:17;;;;;;;5.37;3.87;;;;;;;18.23;55.90;100788.25;4810120;29;20216;-65
2023/04/29 15:56:24;;;;;;;5.53;4.17;;;;;;;18.21;56.23;100796.47;4811829;29;21015;-65
2023/04/29 16:01:52;;;;;;;9.07;4.07;;;;;;;18.21;55.55;100804.53;4808871;29;20208;-64
2023/04/29 16:04:27;;;;;;;6.50;5.13;;;;;;;18.21;55.81;100807.22;4810435;29;20208;-65
2023/04/29 16:06:56;;;;;;;5.80;4.90;;;;;;;18.22;55.83;100808.06;4811244;29;20220;-64
2023/04/29 16:09:30;;;;;;;7.23;4.30;;;;;;;18.15;56.24;100807.16;4811301;29;20247;-65
2023/04/29 16:12:03;;;;;;;6.20;5.07;;;;;;;18.12;56.46;100813.72;4808457;29;20679;-68
2023/04/29 16:14:34;;;;;;;7.67;5.77;;;;;;;18.04;56.22;100817.34;4810376;29;21093;-65
2023/04/29 16:17:04;;;;;;;6.90;5.47;;;;;;;18.01;56.60;100816.91;4809542;29;20295;-65
2023/04/29 16:19:37;;;;;;;7.60;5.10;;;;;;;17.95;56.78;100817.63;4809953;29;20220;-65
2023/04/29 16:22:33;;;;;;;6.67;5.17;;;;;;;17.94;56.81;100814.13;4812864;29;20234;-65
2023/04/29 16:25:02;;;;;;;6.67;5.47;;;;;;;17.88;56.58;100816.72;4808906;29;20236;-64
2023/04/29 16:27:34;;;;;;;7.67;5.73;;;;;;;17.80;57.03;100814.16;4808757;29;20217;-65
2023/04/29 16:33:01;;;;;;;7.33;5.00;;;;;;;17.75;57.70;100816.56;4801679;29;20692;-64
2023/04/29 16:35:33;;;;;;;5.87;4.77;;;;;;;17.67;57.64;100821.03;4810320;29;20216;-65
2023/04/29 16:38:03;;;;;;;6.90;5.10;;;;;;;17.60;57.50;100814.69;4807322;29;20682;-64
2023/04/29 16:40:31;;;;;;;7.60;6.00;;;;;;;17.61;57.96;100813.66;4807778;29;20233;-64
2023/04/29 16:43:02;;;;;;;9.00;5.50;;;;;;;17.60;57.64;100813.84;4808111;29;20224;-64
2023/04/29 16:45:41;;;;;;;8.93;6.47;;;;;;;17.61;57.78;100820.88;4807082;29;20216;-65
2023/04/29 16:48:22;;;;;;;11.23;6.93;;;;;;;17.50;58.18;100810.66;4808958;29;20212;-65
2023/04/29 16:51:10;;;;;;;10.60;6.90;;;;;;;17.47;58.13;100809.16;4808483;29;20307;-65
2023/04/29 16:53:41;;;;;;;8.53;6.93;;;;;;;17.52;58.31;100812.09;4808272;29;20253;-64
2023/04/29 16:56:11;;;;;;;10.73;6.90;;;;;;;17.52;58.13;100820.13;4806880;29;20233;-65
2023/04/29 16:58:50;;;;;;;11.97;8.50;;;;;;;17.48;58.70;100821.53;4808664;29;20213;-65
2023/04/29 17:01:22;;;;;;;11.87;8.87;;;;;;;17.52;58.30;100825.50;4805629;29;20299;-65
2023/04/29 17:03:53;;;;;;;14.73;10.10;;;;;;;17.44;58.90;100830.97;4810559;29;20316;-65
2023/04/29 17:06:32;;;;;;;14.13;10.37;;;;;;;17.35;59.21;100832.06;4808986;29;20212;-65
2023/04/29 17:09:38;;;;;;;14.40;9.80;;;;;;;17.19;59.37;100833.06;4812135;29;20630;-64
2023/04/29 17:12:21;;;;;;;15.87;10.70;;;;;;;17.11;59.91;100825.09;4812302;29;20228;-65
2023/04/29 17:14:53;;;;;;;18.63;12.23;;;;;;;17.26;59.30;100836.66;4810996;29;20219;-64
2023/04/29 17:17:22;;;;;;;13.70;11.07;;;;;;;17.27;59.41;100832.97;4811121;29;20259;-64
2023/04/29 17:20:30;;;;;;;15.23;12.00;;;;;;;17.24;59.16;100840.53;4783049;29;20227;-64
2023/04/29 17:23:22;;;;;;;16.67;11.70;;;;;;;17.15;59.82;100836.31;4815626;29;20323;-65
2023/04/29 17:29:09;;;;;;;17.20;12.80;;;;;;;17.18;59.84;100836.75;4811029;29;20247;-65
2023/04/29 17:31:58;;;;;;;20.43;12.73;;;;;;;17.03;60.78;100837.75;4810369;29;20208;-64
2023/04/29 17:34:32;;;;;;;24.03;14.70;;;;;;;17.07;60.33;100839.84;4810157;29;20221;-65
2023/04/29 17:41:24;;;;;;;17.97;12.90;;;;;;;17.02;61.03;100849.47;4779124;29;20240;-64
2023/04/29 17:43:53;;;;;;;19.30;12.83;;;;;;;17.03;60.52;100859.16;4809233;29;20212;-65
2023/04/29 17:46:21;;;;;;;25.53;13.87;;;;;;;17.05;60.98;100858.00;4809806;29;20346;-65
2023/04/29 17:48:53;;;;;;;21.00;13.87;;;;;;;16.99;61.26;100861.38;4808746;29;20220;-64
2023/04/29 17:51:21;;;;;;;23.60;12.67;;;;;;;17.02;61.62;100868.22;4811408;29;20233;-64
2023/04/29 17:53:56;;;;;;;21.73;14.03;;;;;;;16.99;61.69;100860.53;4809281;29;20826;-65
2023/04/29 17:56:26;;;;;;;19.53;13.43;;;;;;;16.95;61.52;100867.28;4808669;29;20243;-66
2023/04/29 17:59:22;;;;;;;20.80;14.53;;;;;;;16.97;61.86;100868.78;4812179;29;20247;-63
2023/04/29 18:02:00;;;;;;;20.00;13.97;;;;;;;16.97;62.04;100865.25;4807697;29;20220;-63
2023/04/29 18:04:28;;;;;;;22.50;14.90;;;;;;;16.97;62.29;100876.81;4812257;29;20216;-64
2023/04/29 18:07:16;;;;;;;21.03;13.90;;;;;;;16.95;62.16;100878.00;4806407;29;20244;-65
2023/04/29 18:09:53;;;;;;;19.23;13.57;;;;;;;16.97;61.93;100887.53;4811839;29;20307;-65
2023/04/29 18:12:38;;;;;;;17.57;12.67;;;;;;;16.97;62.12;100879.50;4810030;29;20209;-64
2023/04/29 18:15:29;;;;;;;17.97;12.37;;;;;;;16.96;62.84;100875.13;4811438;29;20265;-65
2023/04/29 18:18:01;;;;;;;16.10;11.23;;;;;;;16.87;62.61;100878.91;4799174;29;20253;-65
2023/04/29 18:20:36;;;;;;;12.47;9.80;;;;;;;16.89;62.42;100874.16;4808672;29;20319;-64
2023/04/29 18:26:27;;;;;;;13.83;8.70;;;;;;;16.81;62.75;100880.41;4799801;29;20221;-65
2023/04/29 18:29:13;;;;;;;13.23;8.80;;;;;;;16.74;62.83;100884.00;4813283;29;20216;-65
2023/04/29 18:34:41;;;;;;;11.03;7.80;;;;;;;16.78;62.89;100888.84;4804924;29;20216;-65
2023/04/29 18:37:24;;;;;;;9.33;7.10;;;;;;;16.74;62.71;100895.53;4812798;29;20379;-64
2023/04/29 18:40:00;;;;;;;11.00;7.73;;;;;;;16.76;62.27;100880.13;4813400;29;20215;-65
2023/04/29 18:42:28;;;;;;;12.03;6.93;;;;;;;16.74;62.52;100898.22;4810605;29;20291;-70
2023/04/29 18:45:21;;;;;;;11.20;7.53;;;;;;;16.66;62.46;100894.75;4809323;29;20219;-70
2023/04/29 18:50:51;;;;;;;10.00;6.00;;;;;;;16.64;62.23;100902.97;4805909;29;20286;-67
2023/04/29 18:53:55;;;;;;;9.47;5.60;;;;;;;16.66;61.58;100900.94;4809732;29;20224;-69
2023/04/29 18:56:35;;;;;;;10.60;5.57;;;;;;;16.66;61.46;100906.31;4808659;29;20248;-70
2023/04/29 18:59:08;;;;;;;6.87;5.13;;;;;;;16.63;61.83;100909.34;4809155;29;20226;-70
2023/04/29 19:01:39;;;;;;;8.03;5.17;;;;;;;16.56;61.45;100911.84;4811470;29;20228;-69
2023/04/29 19:04:16;;;;;;;6.63;5.23;;;;;;;16.61;61.10;100918.53;4806803;29;20678;-69
2023/04/29 19:06:45;;;;;;;8.80;6.23;;;;;;;16.89;59.45;100906.31;4808770;29;20863;-69
2023/04/29 19:09:14;;;;;;;12.20;6.23;;;;;;;16.70;59.58;100917.50;4808955;29;20609;-70
2023/04/29 19:11:42;;;;;;;14.03;6.20;;;;;;;16.61;59.33;100924.75;4807496;29;20668;-69
2023/04/29 19:14:10;;;;;;;8.83;6.40;;;;;;;16.54;59.03;100926.41;4808845;29;20307;-70
2023/04/29 19:16:42;;;;;;;11.20;6.53;;;;;;;16.56;58.08;100930.59;4806278;29;20255;-68
2023/04/29 19:19:11;;;;;;;11.37;6.70;;;;;;;16.51;58.08;100929.47;4809708;29;20303;-69
2023/04/29 19:21:39;;;;;;;11.13;6.67;;;;;;;16.53;58.44;100933.63;4813193;29;20817;-69
2023/04/29 19:24:09;;;;;;;10.13;6.67;;;;;;;16.53;58.83;100938.16;4808896;29;20243;-70
2023/04/29 19:26:38;;;;;;;9.87;6.80;;;;;;;16.51;58.78;100935.66;4812058;29;20212;-70
2023/04/29 19:29:19;;;;;;;11.80;7.00;;;;;;;16.56;59.04;100935.13;4811741;29;20898;-67
2023/04/29 19:31:55;;;;;;;11.03;6.67;;;;;;;16.52;58.78;100937.31;4812465;29;20216;-68
2023/04/29 19:34:35;;;;;;;8.83;6.23;;;;;;;16.45;59.13;100940.84;4812957;29;20212;-69
2023/04/29 19:37:19;;;;;;;;;;;;;;;;;;;;;
2023/04/29 19:39:59;;;;;;;7.23;5.23;;;;;;;16.48;59.15;100937.84;4810056;29;20212;-68
2023/04/29 19:42:30;;;;;;;7.73;5.23;;;;;;;16.38;59.78;100939.88;4813691;29;20221;-65
2023/04/29 19:44:59;;;;;;;10.07;5.50;;;;;;;16.36;59.92;100952.63;4820408;29;20204;-68
2023/04/29 19:47:30;;;;;;;9.80;5.73;;;;;;;16.42;59.56;100943.91;4819338;29;20340;-68
2023/04/29 19:49:59;;;;;;;9.13;6.13;;;;;;;16.43;59.15;100942.91;4826430;29;20522;-69
2023/04/29 19:52:27;;;;;;;8.97;5.77;;;;;;;16.49;59.07;100948.38;4828326;29;20698;-67
2023/04/29 19:54:59;;;;;;;10.77;6.27;;;;;;;16.41;59.50;100944.91;4822743;29;20309;-67
2023/04/29 19:57:32;;;;;;;8.20;5.67;;;;;;;16.44;59.07;100949.91;4828937;29;20241;-68
2023/04/29 20:00:00;;;;;;;9.90;6.33;;;;;;;16.39;59.47;100952.25;4826691;29;21548;-68
2023/04/29 20:02:32;;;;;;;11.60;6.47;;;;;;;16.35;59.62;100948.28;4827123;29;20212;-65
2023/04/29 20:05:04;;;;;;;10.50;6.87;;;;;;;16.30;59.61;100946.13;4829041;29;20246;-68
2023/04/29 20:07:36;;;;;;;10.60;6.57;;;;;;;16.33;59.86;100953.81;4830089;29;20223;-69
2023/04/29 20:10:12;;;;;;;9.67;6.90;;;;;;;16.34;59.23;100951.97;4831891;29;20211;-67
2023/04/29 20:12:40;;;;;;;10.73;6.70;;;;;;;16.31;59.45;100958.50;4826552;29;20231;-67
2023/04/29 20:15:10;;;;;;;11.00;7.80;;;;;;;16.33;59.02;100959.16;4830426;29;20220;-67
2023/04/29 20:17:42;;;;;;;11.27;7.27;;;;;;;16.35;58.64;100967.03;4818325;29;20247;-68
2023/04/29 20:20:11;;;;;;;11.60;7.77;;;;;;;16.33;59.24;100964.50;4810367;29;20219;-68
2023/04/29 20:22:40;;;;;;;11.60;7.03;;;;;;;16.25;59.46;100966.38;4813010;29;20227;-68
2023/04/29 20:25:11;;;;;;;11.27;8.00;;;;;;;16.29;59.13;100968.53;4813642;29;20239;-67
2023/04/29 20:27:39;;;;;;;14.07;8.37;;;;;;;16.32;58.68;100967.34;4811459;29;20218;-68
2023/04/29 20:30:36;;;;;;;9.97;7.70;;;;;;;16.29;58.80;100960.50;4813134;29;20228;-68
2023/04/29 20:33:28;;;;;;;10.87;7.37;;;;;;;16.25;58.69;100961.88;4813856;29;20216;-66
2023/04/29 20:36:07;;;;;;;12.37;8.10;;;;;;;16.27;58.64;100959.03;4809768;29;20674;-67
2023/04/29 20:38:36;;;;;;;12.63;8.37;;;;;;;16.24;59.00;100964.72;4809944;29;20335;-68
2023/04/29 20:41:11;;;;;;;12.17;7.57;;;;;;;16.31;58.40;100965.69;4812944;29;20226;-70